Aviation WX

[Source: ADDS]
METAR
KFKL 261056Z AUTO 21006KT 10SM CLR 15/13 A2989 RMK AO2 SLP113 T01500133 =
TAF
KFKL 261124Z 2612/2712 22004KT P6SM SKC FM262300 22005KT 6SM -RA VCTS BKN035CB FM270800 VRB03KT P6SM BKN025 =

Clarion Airport T-Shirts

small

Development Areas on Airport

Development areas as listed in the Pennsylvania Department of Transportation,
 Bureau of Aviation Airport Properties Directory


DevAreaMod


Area 1 - 7 acre area for development needing access to runway      
Area 2 - 7 acre area for development not needing access to runway



There are several other Industrial Development areas available on the airport,
and at other sites with easy access to the airport.
Please contact the Clarion County Airport Authority at (814) 226 - 9993, or This email address is being protected from spambots. You need JavaScript enabled to view it.
You can also contact the Clarion County Economic Development Corporation at
(814) 226 - 9045.

Resourceful Links:
Clarion Chamber of Commerce
Clarion County Economic Development Corporation